createdAt,value
2019-02-28T00:00:32.228Z,1012.68
2019-02-28T00:01:32.279Z,1012.65
2019-02-28T00:02:32.237Z,1012.67
2019-02-28T00:03:32.217Z,1012.58
2019-02-28T00:04:32.958Z,1012.58
2019-02-28T00:05:32.199Z,1012.63
2019-02-28T00:06:32.188Z,1012.59
2019-02-28T00:07:32.209Z,1012.64
2019-02-28T00:08:32.151Z,1012.62
2019-02-28T00:09:32.202Z,1012.59
2019-02-28T00:10:32.134Z,1012.59
2019-02-28T00:11:32.121Z,1012.58
2019-02-28T00:12:32.120Z,1012.56
2019-02-28T00:13:32.117Z,1012.52
2019-02-28T00:14:32.086Z,1012.56
2019-02-28T00:15:32.078Z,1012.57
2019-02-28T00:16:32.075Z,1012.54
2019-02-28T00:17:32.099Z,1012.58
2019-02-28T00:18:32.047Z,1012.56
2019-02-28T00:19:32.028Z,1012.53
2019-02-28T00:20:32.637Z,1012.54
2019-02-28T00:21:32.022Z,1012.57
2019-02-28T00:22:32.022Z,1012.57
2019-02-28T00:23:32.010Z,1012.55
2019-02-28T00:24:31.977Z,1012.58
2019-02-28T00:25:31.992Z,1012.53
2019-02-28T00:26:31.961Z,1012.54
2019-02-28T00:27:31.977Z,1012.57
2019-02-28T00:28:31.961Z,1012.57
2019-02-28T00:29:33.760Z,1012.48
2019-02-28T00:30:31.915Z,1012.53
2019-02-28T00:31:31.916Z,1012.47
2019-02-28T00:32:31.892Z,1012.50
2019-02-28T00:33:31.917Z,1012.44
2019-02-28T00:34:31.875Z,1012.46
2019-02-28T00:35:31.870Z,1012.45
2019-02-28T00:36:31.863Z,1012.42
2019-02-28T00:37:31.847Z,1012.44
2019-02-28T00:38:31.855Z,1012.44
2019-02-28T00:39:34.909Z,1012.40
2019-02-28T00:40:31.813Z,1012.41
2019-02-28T00:41:31.800Z,1012.44
2019-02-28T00:42:31.822Z,1012.40
2019-02-28T00:43:31.808Z,1012.33
2019-02-28T00:44:31.798Z,1012.34
2019-02-28T00:45:36.340Z,1012.31
2019-02-28T00:46:31.756Z,1012.27
2019-02-28T00:47:31.749Z,1012.32
2019-02-28T00:48:31.752Z,1012.23
2019-02-28T00:49:31.717Z,1012.26
2019-02-28T00:50:31.711Z,1012.20
2019-02-28T00:51:31.721Z,1012.24
2019-02-28T00:52:32.102Z,1012.26
2019-02-28T00:53:31.691Z,1012.22
2019-02-28T00:54:31.670Z,1012.20
2019-02-28T00:55:31.659Z,1012.22
2019-02-28T00:56:31.651Z,1012.22
2019-02-28T00:57:31.634Z,1012.17
2019-02-28T00:58:31.714Z,1012.16
2019-02-28T00:59:31.883Z,1012.19
2019-02-28T01:00:31.618Z,1012.17
2019-02-28T01:01:31.596Z,1012.14
2019-02-28T01:02:31.589Z,1012.15
2019-02-28T01:03:31.647Z,1012.12
2019-02-28T01:04:31.562Z,1012.15
2019-02-28T01:05:31.558Z,1012.17
2019-02-28T01:06:31.534Z,1012.14
2019-02-28T01:07:31.527Z,1012.11
2019-02-28T01:08:31.533Z,1012.12
2019-02-28T01:09:31.524Z,1012.08
2019-02-28T01:10:31.497Z,1012.09
2019-02-28T01:11:31.482Z,1012.08
2019-02-28T01:12:31.470Z,1012.08
2019-02-28T01:13:31.491Z,1012.06
2019-02-28T01:14:32.446Z,1012.01
2019-02-28T01:15:31.449Z,1012.08
2019-02-28T01:16:31.426Z,1012.00
2019-02-28T01:17:31.422Z,1012.02
2019-02-28T01:18:34.450Z,1011.96
2019-02-28T01:19:31.407Z,1011.98
2019-02-28T01:20:31.403Z,1012.02
2019-02-28T01:21:31.375Z,1011.97
2019-02-28T01:22:31.367Z,1011.96
2019-02-28T01:23:31.384Z,1011.94
2019-02-28T01:24:34.497Z,1011.94
2019-02-28T01:25:31.328Z,1011.88
2019-02-28T01:26:31.338Z,1011.94
2019-02-28T01:27:31.315Z,1011.91
2019-02-28T01:28:31.323Z,1011.88
2019-02-28T01:29:32.935Z,1011.83
2019-02-28T01:30:31.312Z,1011.83
2019-02-28T01:31:31.275Z,1011.84
2019-02-28T01:32:31.266Z,1011.83
2019-02-28T01:33:31.281Z,1011.80
2019-02-28T01:34:32.319Z,1011.79
2019-02-28T01:35:31.231Z,1011.75
2019-02-28T01:36:31.217Z,1011.77
2019-02-28T01:37:31.215Z,1011.73
2019-02-28T01:38:31.214Z,1011.75
2019-02-28T01:39:31.189Z,1011.75
2019-02-28T01:40:31.195Z,1011.71
2019-02-28T01:41:31.184Z,1011.72
2019-02-28T01:42:31.155Z,1011.70
2019-02-28T01:43:31.179Z,1011.69
2019-02-28T01:44:35.566Z,1011.66
2019-02-28T01:45:31.124Z,1011.68
2019-02-28T01:46:31.114Z,1011.68
2019-02-28T01:47:31.125Z,1011.69
2019-02-28T01:48:31.137Z,1011.64
2019-02-28T01:49:31.079Z,1011.69
2019-02-28T01:50:31.083Z,1011.61
2019-02-28T01:51:35.726Z,1011.63
2019-02-28T01:52:31.067Z,1011.62
2019-02-28T01:53:31.066Z,1011.64
2019-02-28T01:54:31.070Z,1011.62
2019-02-28T01:55:31.080Z,1011.58
2019-02-28T01:56:31.010Z,1011.59
2019-02-28T01:57:31.008Z,1011.56
2019-02-28T01:58:31.371Z,1011.60
2019-02-28T01:59:30.992Z,1011.54
2019-02-28T02:00:30.965Z,1011.56
2019-02-28T02:01:31.659Z,1011.54
2019-02-28T02:02:30.992Z,1011.58
2019-02-28T02:03:30.958Z,1011.54
2019-02-28T02:04:30.927Z,1011.57
2019-02-28T02:05:30.934Z,1011.58
2019-02-28T02:06:30.908Z,1011.55
2019-02-28T02:07:33.348Z,1011.51
2019-02-28T02:08:30.874Z,1011.50
2019-02-28T02:09:30.886Z,1011.54
2019-02-28T02:10:30.857Z,1011.54
2019-02-28T02:11:30.942Z,1011.51
2019-02-28T02:12:31.789Z,1011.51
2019-02-28T02:13:30.860Z,1011.49
2019-02-28T02:14:30.824Z,1011.48
2019-02-28T02:15:30.813Z,1011.45
2019-02-28T02:16:30.791Z,1011.50
2019-02-28T02:17:32.312Z,1011.45
2019-02-28T02:18:30.783Z,1011.42
2019-02-28T02:19:30.784Z,1011.40
2019-02-28T02:20:30.825Z,1011.41
2019-02-28T02:21:31.467Z,1011.39
2019-02-28T02:22:30.730Z,1011.33
2019-02-28T02:23:30.722Z,1011.34
2019-02-28T02:24:30.730Z,1011.31
2019-02-28T02:25:30.699Z,1011.32
2019-02-28T02:26:30.689Z,1011.26
2019-02-28T02:27:30.674Z,1011.23
2019-02-28T02:28:30.680Z,1011.24
2019-02-28T02:29:32.491Z,1011.21
2019-02-28T02:30:30.658Z,1011.19
2019-02-28T02:31:30.648Z,1011.18
2019-02-28T02:32:37.272Z,1011.15
2019-02-28T02:33:30.615Z,1011.10
2019-02-28T02:34:30.631Z,1011.13
2019-02-28T02:35:30.616Z,1011.13
2019-02-28T02:36:30.594Z,1011.16
2019-02-28T02:37:31.406Z,1011.08
2019-02-28T02:38:30.562Z,1011.09
2019-02-28T02:39:30.565Z,1011.07
2019-02-28T02:40:30.546Z,1011.09
2019-02-28T02:41:33.353Z,1011.03
2019-02-28T02:42:30.525Z,1011.06
2019-02-28T02:43:30.502Z,1011.04
2019-02-28T02:44:31.996Z,1011.00
2019-02-28T02:45:30.496Z,1011.03
2019-02-28T02:46:30.510Z,1010.98
2019-02-28T02:47:32.452Z,1010.98
2019-02-28T02:48:30.473Z,1010.98
2019-02-28T02:49:30.460Z,1010.99
2019-02-28T02:50:35.850Z,1010.94
2019-02-28T02:51:30.430Z,1010.95
2019-02-28T02:52:30.652Z,1010.91
2019-02-28T02:53:30.420Z,1010.95
2019-02-28T02:54:30.415Z,1010.92
2019-02-28T02:55:30.379Z,1010.96
2019-02-28T02:56:30.384Z,1010.90
2019-02-28T02:57:30.407Z,1010.90
2019-02-28T02:58:30.353Z,1010.86
2019-02-28T02:59:37.558Z,1010.86
2019-02-28T03:00:30.330Z,1010.88
2019-02-28T03:01:30.314Z,1010.83
2019-02-28T03:02:33.278Z,1010.80
2019-02-28T03:03:30.314Z,1010.76
2019-02-28T03:04:30.301Z,1010.80
2019-02-28T03:05:34.972Z,1010.75
2019-02-28T03:06:30.269Z,1010.75
2019-02-28T03:07:30.310Z,1010.78
2019-02-28T03:08:35.723Z,1010.76
2019-02-28T03:09:30.325Z,1010.75
2019-02-28T03:10:30.219Z,1010.73
2019-02-28T03:11:30.225Z,1010.71
2019-02-28T03:12:31.578Z,1010.76
2019-02-28T03:13:30.214Z,1010.72
2019-02-28T03:14:30.209Z,1010.74
2019-02-28T03:15:30.183Z,1010.74
2019-02-28T03:16:32.948Z,1010.79
2019-02-28T03:17:30.149Z,1010.77
2019-02-28T03:18:30.130Z,1010.75
2019-02-28T03:19:33.548Z,1010.76
2019-02-28T03:20:30.137Z,1010.76
2019-02-28T03:21:30.111Z,1010.75
2019-02-28T03:22:30.403Z,1010.72
2019-02-28T03:23:30.088Z,1010.72
2019-02-28T03:24:30.089Z,1010.70
2019-02-28T03:25:30.087Z,1010.72
2019-02-28T03:26:30.044Z,1010.75
2019-02-28T03:27:30.045Z,1010.73
2019-02-28T03:28:32.189Z,1010.76
2019-02-28T03:29:30.052Z,1010.73
2019-02-28T03:30:32.759Z,1010.75
2019-02-28T03:31:29.991Z,1010.77
2019-02-28T03:32:39.796Z,1010.78
2019-02-28T03:33:30.011Z,1010.75
2019-02-28T03:34:29.991Z,1010.79
2019-02-28T03:35:40.587Z,1010.78
2019-02-28T03:36:29.944Z,1010.75
2019-02-28T03:37:33.243Z,1010.80
2019-02-28T03:38:29.954Z,1010.77
2019-02-28T03:39:29.919Z,1010.72
2019-02-28T03:40:29.915Z,1010.74
2019-02-28T03:41:29.889Z,1010.73
2019-02-28T03:42:30.151Z,1010.77
2019-02-28T03:43:29.872Z,1010.77
2019-02-28T03:44:29.853Z,1010.75
2019-02-28T03:45:34.190Z,1010.74
2019-02-28T03:46:29.866Z,1010.75
2019-02-28T03:47:29.827Z,1010.76
2019-02-28T03:48:34.665Z,1010.75
2019-02-28T03:49:29.804Z,1010.81
2019-02-28T03:50:29.813Z,1010.80
2019-02-28T03:51:29.781Z,1010.81
2019-02-28T03:52:29.779Z,1010.85
2019-02-28T03:53:29.777Z,1010.75
2019-02-28T03:54:30.160Z,1010.75
2019-02-28T03:55:29.768Z,1010.73
2019-02-28T03:56:29.755Z,1010.72
2019-02-28T03:57:29.738Z,1010.77
2019-02-28T03:58:29.711Z,1010.79
2019-02-28T03:59:29.700Z,1010.75
2019-02-28T04:00:33.916Z,1010.78
2019-02-28T04:01:29.682Z,1010.80
2019-02-28T04:02:29.709Z,1010.82
2019-02-28T04:03:33.481Z,1010.77
2019-02-28T04:04:29.682Z,1010.79
2019-02-28T04:05:29.646Z,1010.79
2019-02-28T04:06:29.657Z,1010.78
2019-02-28T04:07:29.608Z,1010.75
2019-02-28T04:08:30.780Z,1010.75
2019-02-28T04:09:29.610Z,1010.80
2019-02-28T04:10:29.620Z,1010.78
2019-02-28T04:11:31.180Z,1010.78
2019-02-28T04:12:29.610Z,1010.75
2019-02-28T04:13:29.542Z,1010.77
2019-02-28T04:14:32.997Z,1010.75
2019-02-28T04:15:29.584Z,1010.75
2019-02-28T04:16:29.521Z,1010.76
2019-02-28T04:17:30.451Z,1010.77
2019-02-28T04:18:29.557Z,1010.72
2019-02-28T04:19:29.503Z,1010.78
2019-02-28T04:20:35.939Z,1010.72
2019-02-28T04:21:29.473Z,1010.70
2019-02-28T04:22:29.473Z,1010.71
2019-02-28T04:23:35.659Z,1010.70
2019-02-28T04:24:29.452Z,1010.71
2019-02-28T04:25:29.434Z,1010.72
2019-02-28T04:26:30.053Z,1010.72
2019-02-28T04:27:29.401Z,1010.66
2019-02-28T04:28:29.391Z,1010.64
2019-02-28T04:29:31.118Z,1010.61
2019-02-28T04:30:29.382Z,1010.62
2019-02-28T04:31:29.373Z,1010.63
2019-02-28T04:32:29.346Z,1010.62
2019-02-28T04:33:29.346Z,1010.64
2019-02-28T04:34:29.324Z,1010.58
2019-02-28T04:35:29.348Z,1010.58
2019-02-28T04:36:35.404Z,1010.59
2019-02-28T04:37:29.290Z,1010.61
2019-02-28T04:38:29.294Z,1010.61
2019-02-28T04:39:29.289Z,1010.59
2019-02-28T04:40:29.283Z,1010.57
2019-02-28T04:41:32.526Z,1010.54
2019-02-28T04:42:29.237Z,1010.58
2019-02-28T04:43:29.224Z,1010.55
2019-02-28T04:44:29.224Z,1010.59
2019-02-28T04:45:29.225Z,1010.58
2019-02-28T04:46:31.892Z,1010.57
2019-02-28T04:47:29.194Z,1010.55
2019-02-28T04:48:29.184Z,1010.55
2019-02-28T04:49:29.190Z,1010.56
2019-02-28T04:50:32.141Z,1010.55
2019-02-28T04:51:29.174Z,1010.56
2019-02-28T04:52:29.131Z,1010.55
2019-02-28T04:53:29.121Z,1010.58
2019-02-28T04:54:29.113Z,1010.57
2019-02-28T04:55:30.644Z,1010.56
2019-02-28T04:56:29.099Z,1010.55
2019-02-28T04:57:29.078Z,1010.49
2019-02-28T04:58:29.071Z,1010.47
2019-02-28T04:59:31.540Z,1010.48
2019-02-28T05:00:29.062Z,1010.43
2019-02-28T05:01:29.031Z,1010.45
2019-02-28T05:02:29.036Z,1010.46
2019-02-28T05:03:29.194Z,1010.43
2019-02-28T05:04:29.004Z,1010.45
2019-02-28T05:05:28.996Z,1010.47
2019-02-28T05:06:29.001Z,1010.48
2019-02-28T05:07:29.637Z,1010.47
2019-02-28T05:08:28.971Z,1010.49
2019-02-28T05:09:28.950Z,1010.51
2019-02-28T05:10:28.978Z,1010.51
2019-02-28T05:11:30.716Z,1010.54
2019-02-28T05:12:28.918Z,1010.52
2019-02-28T05:13:28.911Z,1010.51
2019-02-28T05:14:28.899Z,1010.53
2019-02-28T05:15:28.897Z,1010.62
2019-02-28T05:16:28.910Z,1010.55
2019-02-28T05:17:28.885Z,1010.53
2019-02-28T05:18:28.876Z,1010.61
2019-02-28T05:19:28.846Z,1010.58
2019-02-28T05:20:28.846Z,1010.56
2019-02-28T05:21:28.839Z,1010.57
2019-02-28T05:22:28.841Z,1010.55
2019-02-28T05:23:28.805Z,1010.59
2019-02-28T05:24:28.811Z,1010.59
2019-02-28T05:25:28.787Z,1010.52
2019-02-28T05:26:28.783Z,1010.58
2019-02-28T05:27:34.818Z,1010.53
2019-02-28T05:28:28.748Z,1010.55
2019-02-28T05:29:28.758Z,1010.53
2019-02-28T05:30:28.742Z,1010.58
2019-02-28T05:31:28.731Z,1010.54
2019-02-28T05:32:28.705Z,1010.50
2019-02-28T05:33:28.697Z,1010.53
2019-02-28T05:34:28.701Z,1010.54
2019-02-28T05:35:28.671Z,1010.52
2019-02-28T05:36:28.691Z,1010.53
2019-02-28T05:37:28.659Z,1010.54
2019-02-28T05:38:28.652Z,1010.50
2019-02-28T05:39:30.975Z,1010.50
2019-02-28T05:40:28.614Z,1010.48
2019-02-28T05:41:28.635Z,1010.49
2019-02-28T05:42:28.604Z,1010.50
2019-02-28T05:43:29.314Z,1010.47
2019-02-28T05:44:28.589Z,1010.49
2019-02-28T05:45:28.576Z,1010.47
2019-02-28T05:46:28.583Z,1010.50
2019-02-28T05:47:29.463Z,1010.48
2019-02-28T05:48:28.569Z,1010.52
2019-02-28T05:49:28.541Z,1010.50
2019-02-28T05:50:28.529Z,1010.51
2019-02-28T05:51:28.530Z,1010.53
2019-02-28T05:52:30.518Z,1010.55
2019-02-28T05:53:28.554Z,1010.52
2019-02-28T05:54:28.492Z,1010.52
2019-02-28T05:55:28.475Z,1010.48
2019-02-28T05:56:32.859Z,1010.52
2019-02-28T05:57:28.457Z,1010.56
2019-02-28T05:58:28.436Z,1010.53
2019-02-28T05:59:28.453Z,1010.53
2019-02-28T06:00:28.473Z,1010.51
2019-02-28T06:01:28.413Z,1010.58
2019-02-28T06:02:28.417Z,1010.61
2019-02-28T06:03:29.501Z,1010.63
2019-02-28T06:04:28.366Z,1010.61
2019-02-28T06:05:28.388Z,1010.60
2019-02-28T06:06:28.373Z,1010.60
2019-02-28T06:07:28.692Z,1010.59
2019-02-28T06:08:28.360Z,1010.58
2019-02-28T06:09:28.325Z,1010.59
2019-02-28T06:10:28.319Z,1010.60
2019-02-28T06:11:31.393Z,1010.54
2019-02-28T06:12:28.302Z,1010.58
2019-02-28T06:13:28.281Z,1010.58
2019-02-28T06:14:28.272Z,1010.54
2019-02-28T06:15:28.996Z,1010.54
2019-02-28T06:16:28.261Z,1010.47
2019-02-28T06:17:28.229Z,1010.48
2019-02-28T06:18:32.546Z,1010.53
2019-02-28T06:19:28.207Z,1010.47
2019-02-28T06:20:28.200Z,1010.46
2019-02-28T06:21:28.204Z,1010.41
2019-02-28T06:22:31.076Z,1010.41
2019-02-28T06:23:28.165Z,1010.41
2019-02-28T06:24:28.148Z,1010.38
2019-02-28T06:25:28.154Z,1010.38
2019-02-28T06:26:28.153Z,1010.40
2019-02-28T06:27:28.147Z,1010.42
2019-02-28T06:28:31.131Z,1010.43
2019-02-28T06:29:28.111Z,1010.46
2019-02-28T06:30:28.116Z,1010.48
2019-02-28T06:31:28.254Z,1010.49
2019-02-28T06:32:28.133Z,1010.45
2019-02-28T06:33:30.698Z,1010.42
2019-02-28T06:34:28.081Z,1010.41
2019-02-28T06:35:28.062Z,1010.40
2019-02-28T06:36:29.306Z,1010.41
2019-02-28T06:37:28.078Z,1010.43
2019-02-28T06:38:28.408Z,1010.41
2019-02-28T06:39:28.006Z,1010.42
2019-02-28T06:40:32.646Z,1010.40
2019-02-28T06:41:28.004Z,1010.39
2019-02-28T06:42:28.006Z,1010.45
2019-02-28T06:43:27.967Z,1010.41
2019-02-28T06:44:28.023Z,1010.44
2019-02-28T06:45:27.980Z,1010.39
2019-02-28T06:46:27.946Z,1010.37
2019-02-28T06:47:28.030Z,1010.38
2019-02-28T06:48:28.086Z,1010.40
2019-02-28T06:49:27.890Z,1010.38
2019-02-28T06:50:27.871Z,1010.43
2019-02-28T06:51:27.875Z,1010.40
2019-02-28T06:52:27.875Z,1010.41
2019-02-28T06:53:30.794Z,1010.43
2019-02-28T06:54:27.850Z,1010.43
2019-02-28T06:55:27.852Z,1010.43
2019-02-28T06:56:27.829Z,1010.45
2019-02-28T06:57:27.828Z,1010.54
2019-02-28T06:58:30.472Z,1010.47
2019-02-28T06:59:27.778Z,1010.53
2019-02-28T07:00:27.781Z,1010.49
2019-02-28T07:01:29.594Z,1010.49
2019-02-28T07:02:28.572Z,1010.45
2019-02-28T07:03:27.763Z,1010.49
2019-02-28T07:04:27.733Z,1010.47
2019-02-28T07:05:27.711Z,1010.46
2019-02-28T07:06:27.732Z,1010.47
2019-02-28T07:07:27.749Z,1010.47
2019-02-28T07:08:28.957Z,1010.42
2019-02-28T07:09:27.675Z,1010.36
2019-02-28T07:10:27.914Z,1010.47
2019-02-28T07:11:28.686Z,1010.43
2019-02-28T07:12:29.821Z,1010.46
2019-02-28T07:13:27.655Z,1010.47
2019-02-28T07:14:27.636Z,1010.47
2019-02-28T07:15:27.640Z,1010.47
2019-02-28T07:20:53.083Z,1010.41
2019-02-28T07:22:09.490Z,1010.41
2019-02-28T07:22:55.533Z,1010.45
2019-02-28T07:24:49.131Z,1010.52
2019-02-28T07:25:12.761Z,1010.56
2019-02-28T07:26:20.209Z,1010.59
2019-02-28T07:27:10.969Z,1010.49
2019-02-28T07:29:19.278Z,1010.46
2019-02-28T07:32:08.118Z,1010.43
2019-02-28T07:32:55.364Z,1010.41
2019-02-28T07:33:55.294Z,1010.43
2019-02-28T07:34:58.166Z,1010.46
2019-02-28T07:36:19.033Z,1010.42
2019-02-28T07:37:10.107Z,1010.42
2019-02-28T07:39:33.110Z,1010.42
2019-02-28T07:40:08.024Z,1010.40
2019-02-28T07:41:46.075Z,1010.41
2019-02-28T07:42:11.085Z,1010.41
2019-02-28T07:43:03.014Z,1010.45
2019-02-28T07:44:04.012Z,1010.42
2019-02-28T07:44:58.073Z,1010.49
2019-02-28T07:46:44.040Z,1010.46
2019-02-28T07:53:53.314Z,1010.43
2019-02-28T07:54:55.785Z,1010.41
2019-02-28T07:55:54.259Z,1010.39
2019-02-28T07:56:54.258Z,1010.46
2019-02-28T07:57:56.411Z,1010.45
2019-02-28T07:58:54.234Z,1010.47
2019-02-28T07:59:54.248Z,1010.44
2019-02-28T08:00:54.224Z,1010.39
2019-02-28T08:01:54.194Z,1010.41
2019-02-28T08:02:54.269Z,1010.40
2019-02-28T08:03:54.207Z,1010.40
2019-02-28T08:04:55.505Z,1010.39
2019-02-28T08:05:54.148Z,1010.35
2019-02-28T08:06:54.880Z,1010.44
2019-02-28T08:07:54.139Z,1010.43
2019-02-28T08:08:54.203Z,1010.43
2019-02-28T08:09:54.111Z,1010.41
2019-02-28T08:10:54.114Z,1010.38
2019-02-28T08:11:55.468Z,1010.31
2019-02-28T08:12:54.077Z,1010.28
2019-02-28T08:13:55.536Z,1010.30
2019-02-28T08:14:54.084Z,1010.25
2019-02-28T08:15:56.890Z,1010.24
2019-02-28T08:16:54.031Z,1010.23
2019-02-28T08:17:54.021Z,1010.23
2019-02-28T08:18:54.035Z,1010.18
2019-02-28T08:19:54.013Z,1010.13
2019-02-28T08:20:53.996Z,1010.16
2019-02-28T08:21:53.981Z,1010.16
2019-02-28T08:22:56.497Z,1010.18
2019-02-28T08:23:53.959Z,1010.19
2019-02-28T08:24:53.948Z,1010.25
2019-02-28T08:25:53.946Z,1010.26
2019-02-28T08:26:54.294Z,1010.26
2019-02-28T08:27:59.229Z,1010.30
2019-02-28T08:28:54.192Z,1010.28
2019-02-28T08:29:53.894Z,1010.24
2019-02-28T08:30:55.352Z,1010.23
2019-02-28T08:31:53.876Z,1010.20
2019-02-28T08:32:53.983Z,1010.15
2019-02-28T08:33:53.852Z,1010.13
2019-02-28T08:34:55.516Z,1010.08
2019-02-28T08:35:54.138Z,1010.06
2019-02-28T08:36:53.924Z,1010.05
2019-02-28T08:37:57.004Z,1010.09
2019-02-28T08:38:53.818Z,1010.07
2019-02-28T08:39:53.809Z,1010.05
2019-02-28T08:40:53.793Z,1010.06
2019-02-28T08:41:53.772Z,1010.10
2019-02-28T08:42:53.768Z,1010.14
2019-02-28T08:43:53.745Z,1010.22
2019-02-28T08:44:58.094Z,1010.21
2019-02-28T08:45:53.727Z,1010.21
2019-02-28T08:46:53.714Z,1010.23
2019-02-28T08:47:56.759Z,1010.23
2019-02-28T08:48:53.716Z,1010.19
2019-02-28T08:49:53.701Z,1010.21
2019-02-28T08:50:55.761Z,1010.15
2019-02-28T08:51:53.729Z,1010.14
2019-02-28T08:52:53.648Z,1010.11
2019-02-28T08:53:53.675Z,1010.07
2019-02-28T08:54:53.647Z,1010.08
2019-02-28T08:55:53.642Z,1010.09
2019-02-28T08:56:53.603Z,1010.10
2019-02-28T08:57:56.926Z,1010.00
2019-02-28T08:58:53.591Z,1010.02
2019-02-28T08:59:56.319Z,1010.00
2019-02-28T09:00:53.566Z,1009.99
2019-02-28T09:01:53.557Z,1009.97
2019-02-28T09:02:53.832Z,1010.08
2019-02-28T09:03:53.539Z,1010.09
2019-02-28T09:04:53.533Z,1010.09
2019-02-28T09:05:53.508Z,1010.07
2019-02-28T09:06:54.703Z,1010.06
2019-02-28T09:07:53.508Z,1010.06
2019-02-28T09:08:53.476Z,1010.07
2019-02-28T09:09:53.547Z,1010.09
2019-02-28T09:10:53.454Z,1010.11
2019-02-28T09:11:57.896Z,1010.13
2019-02-28T09:12:53.438Z,1010.16
2019-02-28T09:13:53.436Z,1010.13
2019-02-28T09:14:55.431Z,1010.10
2019-02-28T09:15:53.950Z,1010.11
2019-02-28T09:16:53.393Z,1010.17
2019-02-28T09:17:58.256Z,1010.14
2019-02-28T09:18:53.385Z,1010.16
2019-02-28T09:19:53.389Z,1010.13
2019-02-28T09:20:53.362Z,1010.14
2019-02-28T09:21:53.751Z,1010.09
2019-02-28T09:22:53.336Z,1010.08
2019-02-28T09:23:53.331Z,1010.13
2019-02-28T09:24:53.339Z,1010.06
2019-02-28T09:25:56.439Z,1010.02
2019-02-28T09:26:53.289Z,1009.96
2019-02-28T09:27:53.287Z,1009.96
2019-02-28T09:28:53.304Z,1009.87
2019-02-28T09:29:54.831Z,1009.94
2019-02-28T09:30:53.253Z,1009.97
2019-02-28T09:31:53.901Z,1009.99
2019-02-28T09:32:53.281Z,1009.95
2019-02-28T09:33:55.446Z,1009.96
2019-02-28T09:34:53.235Z,1009.87
2019-02-28T09:35:53.200Z,1009.83
2019-02-28T09:36:56.699Z,1009.82
2019-02-28T09:37:53.232Z,1009.75
2019-02-28T09:38:56.968Z,1009.72
2019-02-28T09:39:54.234Z,1009.75
2019-02-28T09:40:53.153Z,1009.72
2019-02-28T09:41:53.216Z,1009.65
2019-02-28T09:42:53.124Z,1009.65
2019-02-28T09:43:53.155Z,1009.63
2019-02-28T09:44:53.110Z,1009.61
2019-02-28T09:45:53.145Z,1009.58
2019-02-28T09:46:53.075Z,1009.63
2019-02-28T09:47:53.076Z,1009.64
2019-02-28T09:48:53.047Z,1009.69
2019-02-28T09:49:53.062Z,1009.62
2019-02-28T09:50:57.926Z,1009.65
2019-02-28T09:51:53.023Z,1009.74
2019-02-28T09:52:53.009Z,1009.71
2019-02-28T09:53:53.025Z,1009.71
2019-02-28T09:54:53.013Z,1009.67
2019-02-28T09:55:52.981Z,1009.71
2019-02-28T09:56:53.005Z,1009.72
2019-02-28T09:57:54.750Z,1009.67
2019-02-28T09:58:53.000Z,1009.73
2019-02-28T09:59:52.940Z,1009.78
2019-02-28T10:00:52.934Z,1009.78
2019-02-28T10:02:01.088Z,1009.75
2019-02-28T10:02:53.165Z,1009.76
2019-02-28T10:03:55.473Z,1009.72
2019-02-28T10:04:52.888Z,1009.74
2019-02-28T10:05:52.891Z,1009.73
2019-02-28T10:06:52.863Z,1009.64
2019-02-28T10:07:52.865Z,1009.65
2019-02-28T10:08:52.851Z,1009.65
2019-02-28T10:09:52.864Z,1009.63
2019-02-28T10:10:55.892Z,1009.63
2019-02-28T10:11:52.834Z,1009.63
2019-02-28T10:12:52.812Z,1009.58
2019-02-28T10:13:54.098Z,1009.59
2019-02-28T10:14:52.778Z,1009.65
2019-02-28T10:15:52.814Z,1009.64
2019-02-28T10:16:53.396Z,1009.63
2019-02-28T10:17:52.743Z,1009.61
2019-02-28T10:18:52.747Z,1009.69
2019-02-28T10:19:53.067Z,1009.64
2019-02-28T10:20:52.736Z,1009.64
2019-02-28T10:21:52.719Z,1009.63
2019-02-28T10:22:52.695Z,1009.65
2019-02-28T10:23:53.451Z,1009.66
2019-02-28T10:24:52.681Z,1009.62
2019-02-28T10:25:52.765Z,1009.64
2019-02-28T10:26:52.671Z,1009.66
2019-02-28T10:27:54.482Z,1009.65
2019-02-28T10:28:52.646Z,1009.67
2019-02-28T10:29:52.617Z,1009.66
2019-02-28T10:30:52.630Z,1009.61
2019-02-28T10:31:52.690Z,1009.61
2019-02-28T10:32:52.612Z,1009.54
2019-02-28T10:33:53.165Z,1009.51
2019-02-28T10:34:52.568Z,1009.50
2019-02-28T10:35:52.583Z,1009.49
2019-02-28T10:36:52.558Z,1009.49
2019-02-28T10:37:57.197Z,1009.45
2019-02-28T10:38:52.516Z,1009.50
2019-02-28T10:39:52.512Z,1009.44
2019-02-28T10:40:53.298Z,1009.46
2019-02-28T10:41:52.497Z,1009.46
2019-02-28T10:42:52.483Z,1009.44
2019-02-28T10:43:55.800Z,1009.44
2019-02-28T10:44:52.478Z,1009.43
2019-02-28T10:45:52.456Z,1009.43
2019-02-28T10:46:53.793Z,1009.42
2019-02-28T10:47:52.439Z,1009.44
2019-02-28T10:48:52.407Z,1009.48
2019-02-28T10:49:55.417Z,1009.50
2019-02-28T10:50:52.483Z,1009.50
2019-02-28T10:51:52.411Z,1009.55
2019-02-28T10:52:52.371Z,1009.49
2019-02-28T10:53:52.355Z,1009.52
2019-02-28T10:54:52.378Z,1009.48
2019-02-28T10:55:54.457Z,1009.43
2019-02-28T10:56:52.337Z,1009.47
2019-02-28T10:57:52.358Z,1009.45
2019-02-28T10:58:53.807Z,1009.53
2019-02-28T10:59:55.025Z,1009.52
2019-02-28T11:00:52.351Z,1009.52
2019-02-28T11:01:52.330Z,1009.54
2019-02-28T11:02:54.054Z,1009.55
2019-02-28T11:03:52.744Z,1009.56
2019-02-28T11:04:52.301Z,1009.56
2019-02-28T11:05:54.282Z,1009.55
2019-02-28T11:06:52.232Z,1009.54
2019-02-28T11:07:52.231Z,1009.57
2019-02-28T11:08:52.241Z,1009.57
2019-02-28T11:09:52.248Z,1009.56
2019-02-28T11:10:52.231Z,1009.55
2019-02-28T11:11:52.208Z,1009.57
2019-02-28T11:12:54.336Z,1009.56
2019-02-28T11:13:52.179Z,1009.53
2019-02-28T11:14:52.143Z,1009.54
2019-02-28T11:15:52.226Z,1009.55
2019-02-28T11:16:52.112Z,1009.57
2019-02-28T11:17:52.109Z,1009.51
2019-02-28T11:18:52.142Z,1009.56
2019-02-28T11:19:52.912Z,1009.53
2019-02-28T11:20:52.097Z,1009.49
2019-02-28T11:21:52.082Z,1009.43
2019-02-28T11:22:52.050Z,1009.38
2019-02-28T11:23:52.044Z,1009.37
2019-02-28T11:24:52.115Z,1009.43
2019-02-28T11:25:53.060Z,1009.40
2019-02-28T11:26:52.046Z,1009.35
2019-02-28T11:27:53.723Z,1009.30
2019-02-28T11:28:52.000Z,1009.28
2019-02-28T11:29:51.981Z,1009.21
2019-02-28T11:30:52.032Z,1009.16
2019-02-28T11:31:54.189Z,1009.24
2019-02-28T11:32:52.058Z,1009.27
2019-02-28T11:33:52.519Z,1009.24
2019-02-28T11:34:51.939Z,1009.21
2019-02-28T11:35:57.835Z,1009.20
2019-02-28T11:36:51.910Z,1009.20
2019-02-28T11:37:51.934Z,1009.24
2019-02-28T11:38:52.518Z,1009.26
2019-02-28T11:39:51.900Z,1009.24
2019-02-28T11:40:57.303Z,1009.18
2019-02-28T11:41:52.614Z,1009.17
2019-02-28T11:42:51.843Z,1009.18
2019-02-28T11:43:51.836Z,1009.12
2019-02-28T11:44:51.834Z,1009.08
2019-02-28T11:45:51.855Z,1009.04
2019-02-28T11:46:51.851Z,1009.10
2019-02-28T11:47:51.788Z,1009.11
2019-02-28T11:48:53.952Z,1009.12
2019-02-28T11:49:53.815Z,1009.14
2019-02-28T11:50:51.844Z,1009.12
2019-02-28T11:51:53.149Z,1009.13
2019-02-28T11:52:51.770Z,1009.16
2019-02-28T11:53:51.775Z,1009.14
2019-02-28T11:54:51.708Z,1009.14
2019-02-28T11:55:53.397Z,1009.09
2019-02-28T11:56:51.827Z,1009.10
2019-02-28T11:57:51.725Z,1009.08
2019-02-28T11:58:52.655Z,1009.02
2019-02-28T11:59:51.727Z,1009.01
2019-02-28T12:00:51.642Z,1009.02
2019-02-28T12:01:51.646Z,1009.03
2019-02-28T12:02:53.475Z,1008.96
2019-02-28T12:03:51.617Z,1008.98
2019-02-28T12:04:51.604Z,1008.97
2019-02-28T12:05:51.682Z,1008.97
2019-02-28T12:06:51.636Z,1009.01
2019-02-28T12:07:51.995Z,1008.96
2019-02-28T12:08:51.601Z,1008.91
2019-02-28T12:09:54.680Z,1008.94
2019-02-28T12:10:51.542Z,1008.92
2019-02-28T12:11:51.546Z,1008.89
2019-02-28T12:12:51.519Z,1008.88
2019-02-28T12:13:55.124Z,1008.81
2019-02-28T12:14:51.518Z,1008.86
2019-02-28T12:15:51.569Z,1008.86
2019-02-28T12:16:53.605Z,1008.85
2019-02-28T12:17:51.494Z,1008.86
2019-02-28T12:18:51.884Z,1008.82
2019-02-28T12:19:51.456Z,1008.86
2019-02-28T12:20:51.436Z,1008.85